Time;durP1;ratioP1;P1;durP2;ratioP2;P2;SDS_P1;SDS_P2;PMS_P1;PMS_P2;Temp;Humidity;BMP_temperature;BMP_pressure;BME280_temperature;BME280_humidity;BME280_pressure;Samples;Min_cycle;Max_cycle;Signal;HPM_P1;HPM_P2
2023/06/29 00:02:25;;;;;;;23.50;14.05;;;21.10;99.90;;;;;;5091299;28;20187;-47
2023/06/29 00:04:53;;;;;;;45.33;18.88;;;21.10;99.90;;;;;;5091341;28;20164;-47
2023/06/29 00:07:19;;;;;;;20.58;11.20;;;21.50;99.90;;;;;;5091572;28;20170;-47
2023/06/29 00:09:45;;;;;;;8.98;5.82;;;21.10;99.90;;;;;;5090843;28;20571;-47
2023/06/29 00:12:10;;;;;;;13.68;5.95;;;21.10;99.90;;;;;;5091409;28;20200;-47
2023/06/29 00:14:36;;;;;;;9.63;5.55;;;;;;;;;;5091236;28;20215;-47
2023/06/29 00:17:02;;;;;;;8.63;5.28;;;20.80;99.90;;;;;;5091195;28;20177;-47
2023/06/29 00:19:27;;;;;;;12.10;5.75;;;21.20;99.90;;;;;;5091254;28;20181;-48
2023/06/29 00:21:53;;;;;;;7.78;5.43;;;21.20;99.90;;;;;;5091658;28;20223;-47
2023/06/29 00:24:19;;;;;;;8.90;5.35;;;21.10;99.90;;;;;;5091152;28;20166;-47
2023/06/29 00:26:45;;;;;;;8.73;5.53;;;21.00;99.90;;;;;;5091350;28;20211;-47
2023/06/29 00:29:10;;;;;;;12.05;6.00;;;21.10;99.90;;;;;;5091077;28;20166;-48
2023/06/29 00:31:36;;;;;;;14.70;5.72;;;21.60;99.90;;;;;;5091069;28;20193;-47
2023/06/29 00:34:01;;;;;;;10.15;5.20;;;21.00;99.90;;;;;;5091062;28;20517;-47
2023/06/29 00:36:27;;;;;;;10.68;4.90;;;21.10;99.90;;;;;;5091049;28;20180;-47
2023/06/29 00:38:53;;;;;;;8.93;5.13;;;20.90;99.90;;;;;;5091410;28;20177;-47
2023/06/29 00:41:18;;;;;;;9.60;5.70;;;;;;;;;;5091203;28;20174;-47
2023/06/29 00:43:45;;;;;;;8.07;5.38;;;20.90;99.90;;;;;;5091251;28;20170;-47
2023/06/29 00:46:16;;;;;;;8.40;5.32;;;21.00;99.90;;;;;;5091190;28;20169;-47
2023/06/29 00:48:41;;;;;;;11.25;6.13;;;21.00;99.90;;;;;;5094500;28;20185;-47
2023/06/29 00:51:07;;;;;;;10.60;5.47;;;21.00;99.90;;;;;;5094468;28;20208;-47
2023/06/29 00:53:33;;;;;;;11.02;5.50;;;;;;;;;;5094597;28;20693;-47
2023/06/29 00:56:01;;;;;;;7.88;5.03;;;21.40;99.90;;;;;;5094499;28;20161;-47
2023/06/29 00:58:27;;;;;;;9.38;4.57;;;20.90;99.90;;;;;;5094441;28;20165;-47
2023/06/29 01:00:52;;;;;;;9.18;5.00;;;20.90;99.90;;;;;;5094840;28;20165;-47
2023/06/29 01:03:18;;;;;;;9.02;4.90;;;21.00;99.90;;;;;;5094534;28;20516;-48
2023/06/29 01:05:45;;;;;;;7.97;4.90;;;20.90;99.90;;;;;;5094235;28;20173;-47
2023/06/29 01:08:19;;;;;;;6.80;5.35;;;20.80;99.90;;;;;;5094287;28;20165;-47
2023/06/29 01:10:47;;;;;;;12.45;5.57;;;20.80;99.90;;;;;;5093955;28;20219;-47
2023/06/29 01:13:16;;;;;;;12.70;5.35;;;20.80;99.90;;;;;;5094076;28;20201;-47
2023/06/29 01:15:42;;;;;;;10.70;5.07;;;21.20;99.90;;;;;;5093988;28;20180;-47
2023/06/29 01:18:11;;;;;;;8.65;4.95;;;20.80;99.90;;;;;;5094096;28;20177;-47
2023/06/29 01:20:37;;;;;;;7.55;4.97;;;20.80;99.90;;;;;;5094204;28;20170;-47
2023/06/29 01:23:10;;;;;;;10.90;5.18;;;20.80;99.90;;;;;;5093867;28;20161;-48
2023/06/29 01:25:36;;;;;;;8.15;5.15;;;20.80;99.90;;;;;;5094156;28;20207;-47
2023/06/29 01:28:09;;;;;;;7.22;5.07;;;20.70;99.90;;;;;;5093824;28;20575;-47
2023/06/29 01:30:39;;;;;;;9.27;5.50;;;20.90;99.90;;;;;;5093751;28;20173;-47
2023/06/29 01:33:07;;;;;;;8.80;5.00;;;20.80;99.90;;;;;;5093894;28;20616;-47
2023/06/29 01:35:32;;;;;;;9.70;5.25;;;20.70;99.90;;;;;;5093775;28;20162;-47
2023/06/29 01:38:14;;;;;;;11.15;5.15;;;20.70;99.90;;;;;;5093670;28;20179;-47
2023/06/29 01:40:44;;;;;;;6.22;4.65;;;20.70;99.90;;;;;;5093572;28;20173;-47
2023/06/29 01:43:09;;;;;;;7.88;5.38;;;20.60;99.90;;;;;;5093550;28;20252;-47
2023/06/29 01:45:36;;;;;;;10.32;4.80;;;20.10;99.90;;;;;;5093673;28;20204;-47
2023/06/29 01:48:03;;;;;;;7.40;5.03;;;20.90;99.90;;;;;;5093468;28;20168;-47
2023/06/29 01:50:29;;;;;;;11.48;5.28;;;21.40;99.90;;;;;;5093603;28;20219;-47
2023/06/29 01:52:55;;;;;;;8.60;4.93;;;;;;;;;;5093719;28;20200;-47
2023/06/29 01:55:21;;;;;;;10.40;5.38;;;20.50;99.90;;;;;;5093706;28;20244;-47
2023/06/29 01:57:46;;;;;;;7.03;5.20;;;19.80;99.90;;;;;;5092792;28;20536;-47
2023/06/29 02:00:13;;;;;;;6.90;4.85;;;20.70;99.90;;;;;;5093490;28;20161;-47
2023/06/29 02:02:39;;;;;;;9.55;5.03;;;20.60;99.90;;;;;;5093193;28;20169;-47
2023/06/29 02:05:05;;;;;;;12.38;5.28;;;20.50;99.90;;;;;;5093109;28;20176;-47
2023/06/29 02:07:30;;;;;;;8.98;4.72;;;20.60;99.90;;;;;;5093023;28;20169;-47
2023/06/29 02:09:56;;;;;;;17.77;5.50;;;20.30;99.90;;;;;;5092893;28;20231;-47
2023/06/29 02:12:21;;;;;;;8.65;5.45;;;20.40;99.90;;;;;;5093332;28;20212;-47
2023/06/29 02:14:47;;;;;;;12.52;5.32;;;20.30;99.90;;;;;;5092927;28;20200;-47
2023/06/29 02:17:12;;;;;;;7.65;4.65;;;20.30;99.90;;;;;;5093192;28;20165;-47
2023/06/29 02:19:38;;;;;;;7.35;4.60;;;;;;;;;;5093124;28;20164;-48
2023/06/29 02:22:04;;;;;;;9.15;5.20;;;20.20;99.90;;;;;;5092861;28;20605;-47
2023/06/29 02:24:29;;;;;;;8.52;5.32;;;21.20;99.90;;;;;;5092769;28;20177;-47
2023/06/29 02:26:55;;;;;;;13.82;5.30;;;;;;;;;;5092713;28;20191;-47
2023/06/29 02:29:21;;;;;;;11.25;5.80;;;20.30;99.90;;;;;;5093075;28;20204;-47
2023/06/29 02:31:47;;;;;;;12.30;5.88;;;20.70;99.90;;;;;;5092449;28;20228;-47
2023/06/29 02:34:12;;;;;;;7.15;5.43;;;20.20;99.90;;;;;;5092531;28;20196;-47
2023/06/29 02:36:39;;;;;;;10.07;5.57;;;20.20;99.90;;;;;;5092516;28;20184;-47
2023/06/29 02:39:04;;;;;;;8.38;5.18;;;20.30;99.90;;;;;;5092374;28;20648;-47
2023/06/29 02:41:30;;;;;;;12.23;5.72;;;20.30;99.90;;;;;;5092673;28;20191;-47
2023/06/29 02:43:55;;;;;;;9.20;5.38;;;20.30;99.90;;;;;;5092498;28;20173;-47
2023/06/29 02:46:21;;;;;;;9.48;5.07;;;20.20;99.90;;;;;;5092752;28;20173;-47
2023/06/29 02:48:47;;;;;;;16.40;5.75;;;20.20;99.90;;;;;;5092572;28;20172;-47
2023/06/29 02:51:12;;;;;;;8.35;4.82;;;20.30;99.90;;;;;;5092167;28;20255;-47
2023/06/29 02:53:38;;;;;;;10.25;4.97;;;19.70;99.90;;;;;;5092175;28;20177;-47
2023/06/29 02:56:04;;;;;;;7.03;4.95;;;;;;;;;;5092224;28;20169;-47
2023/06/29 02:58:29;;;;;;;16.27;5.80;;;20.00;99.90;;;;;;5092373;28;20169;-47
2023/06/29 03:00:55;;;;;;;12.07;5.30;;;20.30;99.90;;;;;;5092121;28;20168;-47
2023/06/29 03:03:21;;;;;;;11.88;5.95;;;;;;;;;;5092463;28;20248;-47
2023/06/29 03:05:46;;;;;;;19.88;6.07;;;20.20;99.90;;;;;;5092023;28;20684;-48
2023/06/29 03:08:12;;;;;;;12.18;6.00;;;20.20;99.90;;;;;;5092016;28;20505;-48
2023/06/29 03:10:37;;;;;;;7.50;5.70;;;20.40;99.90;;;;;;5091187;28;20319;-48
2023/06/29 03:13:03;;;;;;;9.85;5.65;;;20.10;99.90;;;;;;5073743;28;20235;-48
2023/06/29 03:15:28;;;;;;;13.43;6.10;;;20.20;99.90;;;;;;5091826;28;20162;-48
2023/06/29 03:17:54;;;;;;;14.20;6.07;;;;;;;;;;5092219;28;20576;-48
2023/06/29 03:20:20;;;;;;;12.85;5.30;;;19.40;99.90;;;;;;5092279;28;20294;-48
2023/06/29 03:22:46;;;;;;;12.35;5.68;;;20.20;99.90;;;;;;5091804;28;20165;-48
2023/06/29 03:25:11;;;;;;;11.23;5.22;;;20.10;99.90;;;;;;5092104;28;20516;-48
2023/06/29 03:27:37;;;;;;;9.30;5.78;;;20.90;99.90;;;;;;5091675;28;20505;-48
2023/06/29 03:30:03;;;;;;;11.18;5.50;;;;;;;;;;5091949;28;20603;-48
2023/06/29 03:32:29;;;;;;;11.25;5.13;;;;;;;;;;5091431;28;20205;-48
2023/06/29 03:34:55;;;;;;;12.80;6.03;;;20.00;99.90;;;;;;5091566;28;20256;-48
2023/06/29 03:37:20;;;;;;;17.77;6.05;;;20.10;99.90;;;;;;5092086;28;20161;-47
2023/06/29 03:39:46;;;;;;;10.00;5.63;;;20.00;99.90;;;;;;5091541;28;20168;-47
2023/06/29 03:42:12;;;;;;;9.70;5.25;;;20.10;99.90;;;;;;5073404;28;20174;-48
2023/06/29 03:44:39;;;;;;;10.75;5.75;;;20.10;99.90;;;;;;5091709;28;20177;-47
2023/06/29 03:47:08;;;;;;;13.07;5.93;;;20.30;99.90;;;;;;5091556;28;20176;-48
2023/06/29 03:49:33;;;;;;;12.50;6.43;;;20.30;99.90;;;;;;5091537;28;20633;-47
2023/06/29 03:51:59;;;;;;;11.75;6.90;;;20.10;99.90;;;;;;5091426;28;20197;-47
2023/06/29 03:54:26;;;;;;;17.70;5.82;;;20.30;99.90;;;;;;5091685;28;20196;-48
2023/06/29 03:56:52;;;;;;;11.18;6.43;;;20.10;99.90;;;;;;5092008;28;20169;-49
2023/06/29 03:59:17;;;;;;;9.07;5.82;;;;;;;;;;5091413;28;20567;-47
2023/06/29 04:01:43;;;;;;;16.50;6.28;;;20.00;99.90;;;;;;5091317;28;20173;-47
2023/06/29 04:04:09;;;;;;;13.32;6.07;;;20.60;99.90;;;;;;5073211;28;20168;-48
2023/06/29 04:06:34;;;;;;;11.50;6.38;;;20.20;99.90;;;;;;5091347;28;20177;-48
2023/06/29 04:09:00;;;;;;;12.80;5.95;;;20.40;99.90;;;;;;5091288;28;20161;-48
2023/06/29 04:11:25;;;;;;;9.13;5.80;;;20.30;99.90;;;;;;5091171;28;20657;-48
2023/06/29 04:13:51;;;;;;;11.68;5.97;;;20.30;99.90;;;;;;5091556;28;20582;-47
2023/06/29 04:16:16;;;;;;;10.13;6.22;;;20.10;99.90;;;;;;5090962;28;20157;-48
2023/06/29 04:18:42;;;;;;;12.27;7.32;;;20.30;99.90;;;;;;5091002;28;20501;-47
2023/06/29 04:21:07;;;;;;;11.65;7.50;;;20.20;99.90;;;;;;5092526;28;20215;-48
2023/06/29 04:23:33;;;;;;;14.02;7.22;;;20.30;99.90;;;;;;5095050;28;20176;-48
2023/06/29 04:26:02;;;;;;;10.90;6.72;;;20.30;99.90;;;;;;5095214;28;20244;-47
2023/06/29 04:28:37;;;;;;;13.60;6.72;;;20.30;99.90;;;;;;5095191;28;20169;-47
2023/06/29 04:31:03;;;;;;;16.30;7.20;;;20.20;99.90;;;;;;5094935;28;20161;-47
2023/06/29 04:33:28;;;;;;;12.00;6.47;;;20.50;99.90;;;;;;5094628;28;20250;-48
2023/06/29 04:35:55;;;;;;;17.70;8.07;;;;;;;;;;5095101;28;20165;-47
2023/06/29 04:38:25;;;;;;;12.77;7.25;;;20.20;99.90;;;;;;5095381;28;20173;-48
2023/06/29 04:40:53;;;;;;;10.55;6.72;;;20.50;99.90;;;;;;5094916;28;20705;-48
2023/06/29 04:43:18;;;;;;;14.95;8.50;;;20.90;99.90;;;;;;5094519;28;20165;-48
2023/06/29 04:45:44;;;;;;;15.73;7.75;;;20.30;99.90;;;;;;5094593;28;20170;-48
2023/06/29 04:48:10;;;;;;;13.70;6.57;;;21.40;99.90;;;;;;5094390;28;20165;-48
2023/06/29 04:50:36;;;;;;;13.23;6.60;;;21.00;99.90;;;;;;5094557;28;20197;-48
2023/06/29 04:53:09;;;;;;;11.40;6.78;;;20.70;99.90;;;;;;5094372;28;20689;-48
2023/06/29 04:55:36;;;;;;;11.98;6.85;;;20.90;99.90;;;;;;5094401;28;20540;-47
2023/06/29 04:58:03;;;;;;;10.63;6.07;;;20.80;99.90;;;;;;5076280;28;20683;-48
2023/06/29 05:00:29;;;;;;;10.75;6.20;;;20.90;99.90;;;;;;5094604;28;20199;-48
2023/06/29 05:02:55;;;;;;;11.43;6.22;;;21.00;99.90;;;;;;5094270;28;20161;-48
2023/06/29 05:05:20;;;;;;;12.80;6.10;;;21.30;99.90;;;;;;5094704;28;20177;-47
2023/06/29 05:07:46;;;;;;;8.80;6.20;;;21.30;99.90;;;;;;5094194;28;20167;-48
2023/06/29 05:10:11;;;;;;;11.80;6.55;;;21.00;99.90;;;;;;5094138;28;20217;-48
2023/06/29 05:12:37;;;;;;;11.73;5.53;;;20.80;99.90;;;;;;5094027;28;20600;-48
2023/06/29 05:15:03;;;;;;;7.78;4.82;;;21.20;99.90;;;;;;5094113;28;20170;-48
2023/06/29 05:17:28;;;;;;;10.07;5.20;;;20.90;99.90;;;;;;5094016;28;20177;-48
2023/06/29 05:19:54;;;;;;;8.52;5.45;;;;;;;;;;5094007;28;20210;-48
2023/06/29 05:22:20;;;;;;;9.32;5.65;;;21.20;99.90;;;;;;5094519;28;20534;-48
2023/06/29 05:24:45;;;;;;;8.65;4.63;;;21.70;99.90;;;;;;5093907;28;20534;-48
2023/06/29 05:27:11;;;;;;;10.88;5.30;;;21.30;99.90;;;;;;5093915;28;20632;-48
2023/06/29 05:29:37;;;;;;;9.02;5.68;;;21.60;99.90;;;;;;5093992;28;20172;-47
2023/06/29 05:32:04;;;;;;;8.68;5.20;;;21.10;99.90;;;;;;5093232;28;20677;-48
2023/06/29 05:34:30;;;;;;;12.82;5.07;;;21.30;99.90;;;;;;5093227;28;20162;-47
2023/06/29 05:36:55;;;;;;;8.65;5.10;;;21.10;99.90;;;;;;5093698;28;20672;-48
2023/06/29 05:39:21;;;;;;;8.40;4.30;;;21.10;99.90;;;;;;5094213;28;20173;-48
2023/06/29 05:41:47;;;;;;;8.43;4.55;;;;;;;;;;5075595;28;20629;-48
2023/06/29 05:44:12;;;;;;;7.65;4.45;;;21.00;99.90;;;;;;5093470;28;20166;-48
2023/06/29 05:46:38;;;;;;;9.90;4.90;;;21.20;99.90;;;;;;5093500;28;20206;-48
2023/06/29 05:49:03;;;;;;;10.32;4.78;;;20.60;99.90;;;;;;5093460;28;20161;-49
2023/06/29 05:51:29;;;;;;;12.85;4.40;;;;;;;;;;5093400;28;20228;-48
2023/06/29 05:53:55;;;;;;;8.18;4.53;;;21.30;99.90;;;;;;5093521;28;20260;-49
2023/06/29 05:56:21;;;;;;;16.35;6.10;;;20.80;99.90;;;;;;5093710;28;20208;-48
2023/06/29 05:58:47;;;;;;;18.25;5.97;;;20.70;99.90;;;;;;5093223;28;20161;-48
2023/06/29 06:01:13;;;;;;;15.52;5.72;;;21.30;99.90;;;;;;5093456;28;20169;-48
2023/06/29 06:03:39;;;;;;;10.65;4.68;;;21.40;99.90;;;;;;5093141;28;20168;-47
2023/06/29 06:06:05;;;;;;;16.58;5.43;;;21.30;99.90;;;;;;5093297;28;20180;-48
2023/06/29 06:08:30;;;;;;;9.07;4.72;;;21.10;99.90;;;;;;5093130;28;20165;-47
2023/06/29 06:10:56;;;;;;;13.93;5.47;;;21.70;99.90;;;;;;5092932;28;20223;-47
2023/06/29 06:13:22;;;;;;;11.90;5.47;;;21.20;99.90;;;;;;5093386;28;20209;-47
2023/06/29 06:15:47;;;;;;;10.00;5.25;;;21.60;99.90;;;;;;5092775;28;20165;-47
2023/06/29 06:18:13;;;;;;;7.75;4.35;;;21.60;99.90;;;;;;5092926;28;20177;-47
2023/06/29 06:20:38;;;;;;;11.70;5.28;;;21.80;99.90;;;;;;5092671;28;20203;-47
2023/06/29 06:23:04;;;;;;;16.27;5.45;;;;;;;;;;5092728;28;20169;-48
2023/06/29 06:25:30;;;;;;;9.65;4.93;;;21.70;99.90;;;;;;5092687;28;20294;-48
2023/06/29 06:27:55;;;;;;;8.88;4.85;;;21.60;99.90;;;;;;5092718;28;20173;-49
2023/06/29 06:30:23;;;;;;;13.07;4.75;;;21.60;99.90;;;;;;5093082;28;20162;-49
2023/06/29 06:32:49;;;;;;;8.23;4.80;;;21.80;99.90;;;;;;5092866;28;20679;-48
2023/06/29 06:35:16;;;;;;;9.45;4.85;;;22.10;99.90;;;;;;5092469;28;20678;-49
2023/06/29 06:37:42;;;;;;;10.35;5.50;;;22.60;99.90;;;;;;5092752;28;20177;-48
2023/06/29 06:40:11;;;;;;;11.77;4.90;;;22.40;99.90;;;;;;5092470;28;20157;-49
2023/06/29 06:42:39;;;;;;;6.90;4.85;;;22.90;99.90;;;;;;5092366;28;20644;-48
2023/06/29 06:45:06;;;;;;;9.55;4.82;;;22.30;99.90;;;;;;5092334;28;20629;-49
2023/06/29 06:47:33;;;;;;;9.88;5.40;;;22.00;99.90;;;;;;5092562;28;20256;-49
2023/06/29 06:50:02;;;;;;;8.10;4.93;;;22.50;99.90;;;;;;5092192;28;20260;-49
2023/06/29 06:52:28;;;;;;;12.75;5.20;;;22.70;99.90;;;;;;5092182;28;20258;-49
2023/06/29 06:54:54;;;;;;;10.85;5.82;;;22.30;99.90;;;;;;5092249;28;20162;-49
2023/06/29 06:57:20;;;;;;;9.80;5.82;;;22.60;99.90;;;;;;5092813;28;20252;-49
2023/06/29 06:59:46;;;;;;;11.98;5.85;;;;;;;;;;5073866;28;20189;-49
2023/06/29 07:02:12;;;;;;;14.55;5.93;;;22.90;99.90;;;;;;5091979;28;20169;-49
2023/06/29 07:04:38;;;;;;;9.60;5.00;;;23.00;99.90;;;;;;5091956;28;20157;-49
2023/06/29 07:07:04;;;;;;;11.68;5.45;;;22.60;99.90;;;;;;5092259;28;20224;-49
2023/06/29 07:09:30;;;;;;;10.95;5.35;;;22.60;99.90;;;;;;5091974;28;20216;-49
2023/06/29 07:11:57;;;;;;;12.20;6.30;;;23.40;99.90;;;;;;5074167;28;20311;-49
2023/06/29 07:14:23;;;;;;;13.40;6.53;;;;;;;;;;5092528;28;20251;-49
2023/06/29 07:16:49;;;;;;;9.00;5.68;;;22.30;99.90;;;;;;5092521;28;20173;-50
2023/06/29 07:19:15;;;;;;;16.42;6.10;;;23.00;99.90;;;;;;5091860;28;20169;-49
2023/06/29 07:21:41;;;;;;;15.73;6.95;;;22.90;99.90;;;;;;5091814;28;20165;-50
2023/06/29 07:24:08;;;;;;;11.48;5.95;;;22.70;99.90;;;;;;5091718;28;20215;-50
2023/06/29 07:26:34;;;;;;;16.40;6.03;;;23.10;99.90;;;;;;5091780;28;20172;-51
2023/06/29 07:28:59;;;;;;;19.27;6.28;;;22.80;99.90;;;;;;5091705;28;20214;-49
2023/06/29 07:31:29;;;;;;;13.88;6.70;;;23.00;99.90;;;;;;5091482;28;20161;-48
2023/06/29 07:33:55;;;;;;;15.05;6.10;;;23.00;99.90;;;;;;5091932;28;20180;-48
2023/06/29 07:36:22;;;;;;;13.18;6.05;;;23.20;99.90;;;;;;5091951;28;20287;-49
2023/06/29 07:38:48;;;;;;;15.52;6.38;;;23.40;99.90;;;;;;5091982;28;20161;-49
2023/06/29 07:41:15;;;;;;;15.63;6.28;;;23.40;99.90;;;;;;5091605;28;20165;-49
2023/06/29 07:43:42;;;;;;;12.80;5.85;;;22.90;99.90;;;;;;5091495;28;20167;-49
2023/06/29 07:46:08;;;;;;;15.02;6.25;;;23.30;99.90;;;;;;5091462;28;20169;-50
2023/06/29 07:48:33;;;;;;;10.85;6.05;;;23.00;99.90;;;;;;5091799;28;20179;-50
2023/06/29 07:50:59;;;;;;;15.07;6.50;;;23.00;99.90;;;;;;5091510;28;20220;-50
2023/06/29 07:53:24;;;;;;;16.00;6.50;;;22.80;99.90;;;;;;5073327;28;20231;-51
2023/06/29 07:55:50;;;;;;;11.93;6.32;;;22.90;99.90;;;;;;5093003;28;20262;-51
2023/06/29 07:58:16;;;;;;;12.82;7.15;;;23.10;99.90;;;;;;5095642;28;20169;-50
2023/06/29 08:00:42;;;;;;;14.00;7.10;;;22.70;99.90;;;;;;5095485;28;20170;-51
2023/06/29 08:03:08;;;;;;;16.23;7.35;;;22.60;99.90;;;;;;5095448;28;20248;-49
2023/06/29 08:05:33;;;;;;;13.68;7.97;;;23.30;99.90;;;;;;5095616;28;20261;-51
2023/06/29 08:07:59;;;;;;;15.45;7.55;;;23.40;99.90;;;;;;5095391;28;20193;-50
2023/06/29 08:10:25;;;;;;;14.88;8.52;;;23.10;99.90;;;;;;5095110;28;20205;-49
2023/06/29 08:12:51;;;;;;;19.70;8.73;;;23.20;99.90;;;;;;5095586;28;20201;-51
2023/06/29 08:15:16;;;;;;;17.80;8.50;;;23.60;99.90;;;;;;5095434;28;20169;-50
2023/06/29 08:17:42;;;;;;;16.70;8.45;;;23.10;99.90;;;;;;5095262;28;20697;-51
2023/06/29 08:20:12;;;;;;;18.35;9.32;;;23.00;99.90;;;;;;5095373;28;20169;-50
2023/06/29 08:22:38;;;;;;;19.05;9.30;;;23.70;99.90;;;;;;5095072;28;20644;-49
2023/06/29 08:25:04;;;;;;;18.00;8.13;;;;;;;;;;5095123;28;20660;-49
2023/06/29 08:27:30;;;;;;;16.90;9.27;;;23.10;99.90;;;;;;5076889;28;20210;-49
2023/06/29 08:29:56;;;;;;;11.00;7.35;;;23.40;99.90;;;;;;5094948;28;20193;-49
2023/06/29 08:32:21;;;;;;;24.58;9.02;;;22.70;99.90;;;;;;5095214;28;20611;-49
2023/06/29 08:34:47;;;;;;;16.65;8.73;;;23.30;99.90;;;;;;5095068;28;20625;-49
2023/06/29 08:37:12;;;;;;;19.90;10.77;;;23.70;99.90;;;;;;5094815;28;20644;-49
2023/06/29 08:39:38;;;;;;;17.70;9.93;;;23.60;99.90;;;;;;5094774;28;20620;-49
2023/06/29 08:42:04;;;;;;;16.90;10.65;;;23.80;99.90;;;;;;5094941;28;20647;-49
2023/06/29 08:44:30;;;;;;;16.02;11.43;;;24.40;99.90;;;;;;5094692;28;20206;-49
2023/06/29 08:46:59;;;;;;;15.55;11.75;;;24.40;99.90;;;;;;5094910;28;20165;-49
2023/06/29 08:49:25;;;;;;;19.63;13.00;;;24.40;99.90;;;;;;5094642;28;20165;-49
2023/06/29 08:51:54;;;;;;;22.52;12.15;;;24.90;99.90;;;;;;5094833;28;20209;-49
2023/06/29 08:54:20;;;;;;;18.10;12.80;;;25.00;99.90;;;;;;5094943;28;20181;-49
2023/06/29 08:56:47;;;;;;;19.80;12.63;;;25.20;99.90;;;;;;5094755;28;20168;-48
2023/06/29 08:59:14;;;;;;;17.17;12.88;;;25.10;99.90;;;;;;5094419;28;20205;-49
2023/06/29 09:01:40;;;;;;;19.42;13.10;;;24.90;99.90;;;;;;5094426;28;20179;-49
2023/06/29 09:04:06;;;;;;;19.45;12.98;;;25.50;99.90;;;;;;5094398;28;20169;-49
2023/06/29 09:06:32;;;;;;;22.40;14.52;;;25.70;99.90;;;;;;5094203;28;20642;-49
2023/06/29 09:08:58;;;;;;;19.67;13.48;;;26.00;99.90;;;;;;5093186;28;20175;-49
2023/06/29 09:11:24;;;;;;;20.00;14.80;;;25.90;99.90;;;;;;5094064;28;20176;-48
2023/06/29 09:13:50;;;;;;;17.60;12.75;;;25.50;99.90;;;;;;5094841;28;20173;-49
2023/06/29 09:16:17;;;;;;;18.15;12.85;;;25.80;99.90;;;;;;5094058;28;20161;-48
2023/06/29 09:18:48;;;;;;;18.02;11.70;;;25.60;99.90;;;;;;5094306;28;20172;-49
2023/06/29 09:21:16;;;;;;;17.52;12.45;;;25.90;99.90;;;;;;5094046;28;20169;-49
2023/06/29 09:23:43;;;;;;;22.08;12.18;;;26.30;99.90;;;;;;5093900;28;20171;-49
2023/06/29 09:26:09;;;;;;;18.67;12.60;;;;;;;;;;5093979;28;20169;-49
2023/06/29 09:28:35;;;;;;;16.95;12.32;;;25.60;99.90;;;;;;5093882;28;20244;-49
2023/06/29 09:31:08;;;;;;;15.57;11.98;;;26.10;99.90;;;;;;5094089;28;20643;-49
2023/06/29 09:33:34;;;;;;;16.70;12.68;;;;;;;;;;5093769;28;20196;-49
2023/06/29 09:36:05;;;;;;;17.88;11.98;;;;;;;;;;5093785;28;20238;-53
2023/06/29 09:38:31;;;;;;;19.20;11.98;;;26.30;99.90;;;;;;5093821;28;20229;-49
2023/06/29 09:40:57;;;;;;;18.00;11.75;;;26.40;99.90;;;;;;5093901;28;20574;-50
2023/06/29 09:43:28;;;;;;;19.48;13.10;;;26.00;99.90;;;;;;5093485;28;20188;-49
2023/06/29 09:46:02;;;;;;;20.17;12.55;;;26.20;99.90;;;;;;5093743;28;20176;-49
2023/06/29 09:48:28;;;;;;;21.67;12.25;;;25.50;99.90;;;;;;5093547;28;20171;-50
2023/06/29 09:50:54;;;;;;;19.02;12.02;;;25.80;99.90;;;;;;5093615;28;20520;-48
2023/06/29 09:53:33;;;;;;;19.10;12.98;;;;;;;;;;5093708;28;20588;-49
2023/06/29 09:55:59;;;;;;;18.75;12.48;;;25.90;99.90;;;;;;5093303;28;20532;-49
2023/06/29 09:58:29;;;;;;;23.42;13.43;;;25.00;99.90;;;;;;5075102;28;20256;-49
2023/06/29 10:00:58;;;;;;;20.52;12.80;;;25.90;99.90;;;;;;5093183;28;20165;-49
2023/06/29 10:03:27;;;;;;;25.33;13.32;;;25.30;99.90;;;;;;5093149;28;20628;-49
2023/06/29 10:06:11;;;;;;;18.65;12.43;;;26.20;99.90;;;;;;5093441;28;20165;-49
2023/06/29 10:08:42;;;;;;;18.48;13.73;;;26.40;99.90;;;;;;5093400;28;20179;-49
2023/06/29 10:11:08;;;;;;;21.58;12.82;;;26.40;99.90;;;;;;5092834;28;20220;-51
2023/06/29 10:13:39;;;;;;;18.38;14.07;;;26.30;99.90;;;;;;5092914;28;20207;-49
2023/06/29 10:16:09;;;;;;;19.33;13.40;;;26.30;99.90;;;;;;5092926;28;20157;-51
2023/06/29 10:18:39;;;;;;;16.25;12.93;;;26.20;99.90;;;;;;5092615;28;20218;-49
2023/06/29 10:21:05;;;;;;;18.33;13.50;;;25.60;99.90;;;;;;5092916;28;20201;-50
2023/06/29 10:23:31;;;;;;;20.83;12.75;;;25.90;99.90;;;;;;5092816;28;20161;-49
2023/06/29 10:26:00;;;;;;;17.90;10.90;;;26.30;99.90;;;;;;5092791;28;20171;-49
2023/06/29 10:28:25;;;;;;;16.92;10.73;;;25.60;99.90;;;;;;5092960;28;20183;-49
2023/06/29 10:30:58;;;;;;;18.48;10.52;;;26.00;99.90;;;;;;5093127;28;20165;-49
2023/06/29 10:33:23;;;;;;;15.30;10.80;;;26.50;99.90;;;;;;5092809;28;20205;-49
2023/06/29 10:36:02;;;;;;;18.20;10.77;;;26.10;99.90;;;;;;5092887;28;20260;-49
2023/06/29 10:38:32;;;;;;;12.38;10.13;;;25.90;99.90;;;;;;5073387;28;20179;-49
2023/06/29 10:40:58;;;;;;;15.55;10.15;;;25.90;99.90;;;;;;5092256;28;20620;-48
2023/06/29 10:43:27;;;;;;;13.55;9.60;;;25.40;99.90;;;;;;5092116;28;20218;-49
2023/06/29 10:45:53;;;;;;;13.07;9.88;;;26.20;99.90;;;;;;5092416;28;20184;-49
2023/06/29 10:48:20;;;;;;;15.43;10.00;;;25.80;99.90;;;;;;5092507;28;20529;-49
2023/06/29 10:50:49;;;;;;;11.80;8.23;;;26.50;99.90;;;;;;5091810;28;20666;-48
2023/06/29 10:53:16;;;;;;;12.95;9.00;;;26.30;99.90;;;;;;5091924;28;20604;-49
2023/06/29 10:55:52;;;;;;;16.42;9.35;;;26.70;99.90;;;;;;5091904;28;20161;-48
2023/06/29 10:58:25;;;;;;;11.70;8.13;;;26.20;99.90;;;;;;5092540;28;20259;-49
2023/06/29 11:00:52;;;;;;;13.07;8.10;;;;;;;;;;5092388;28;20168;-49
2023/06/29 11:03:19;;;;;;;11.45;8.15;;;25.80;99.90;;;;;;5092226;28;20169;-49
2023/06/29 11:05:52;;;;;;;15.68;7.95;;;;;;;;;;5091558;28;20244;-49
2023/06/29 11:08:23;;;;;;;17.15;8.45;;;26.10;99.90;;;;;;5092465;28;20531;-50
2023/06/29 11:10:50;;;;;;;10.73;8.75;;;;;;;;;;5091902;28;20220;-49
2023/06/29 11:13:18;;;;;;;17.08;9.40;;;26.10;99.90;;;;;;5091661;28;20298;-51
2023/06/29 11:15:44;;;;;;;15.25;9.80;;;25.70;99.90;;;;;;5091589;28;20160;-50
2023/06/29 11:18:10;;;;;;;14.60;9.75;;;26.50;99.90;;;;;;5091655;28;20173;-51
2023/06/29 11:20:38;;;;;;;11.90;9.95;;;26.40;99.90;;;;;;5091340;28;20160;-50
2023/06/29 11:23:03;;;;;;;15.38;11.07;;;26.40;99.90;;;;;;5091738;28;20200;-48
2023/06/29 11:25:29;;;;;;;16.02;11.10;;;26.20;99.90;;;;;;5091745;28;20199;-49
2023/06/29 11:27:56;;;;;;;15.68;11.38;;;26.50;99.90;;;;;;5091691;28;20172;-49
2023/06/29 11:30:22;;;;;;;17.50;11.23;;;;;;;;;;5090817;28;20157;-50
2023/06/29 11:32:50;;;;;;;16.77;12.73;;;26.80;99.90;;;;;;5091740;28;20660;-50
2023/06/29 11:35:20;;;;;;;16.75;11.85;;;27.00;99.90;;;;;;5091132;28;20248;-51
2023/06/29 11:37:46;;;;;;;20.60;12.82;;;26.90;99.90;;;;;;5091622;28;20230;-49
2023/06/29 11:40:21;;;;;;;16.02;12.80;;;;;;;;;;5091352;28;20160;-50
2023/06/29 11:42:49;;;;;;;17.77;12.63;;;26.80;99.90;;;;;;5091707;28;20168;-50
2023/06/29 11:45:16;;;;;;;19.02;12.73;;;27.10;99.90;;;;;;5091271;28;20161;-50
2023/06/29 11:47:44;;;;;;;21.20;12.68;;;26.70;99.90;;;;;;5091490;28;20169;-50
2023/06/29 11:50:10;;;;;;;19.02;13.57;;;;;;;;;;5090919;28;20176;-51
2023/06/29 11:52:39;;;;;;;16.25;11.88;;;26.70;99.90;;;;;;5073323;28;20526;-49
2023/06/29 11:55:07;;;;;;;22.48;12.30;;;26.50;99.90;;;;;;5091384;28;20180;-49
2023/06/29 11:57:38;;;;;;;16.15;12.80;;;26.40;99.90;;;;;;5091101;28;20169;-50
2023/06/29 12:00:09;;;;;;;17.15;11.93;;;26.40;99.90;;;;;;5091162;28;20171;-49
2023/06/29 12:02:36;;;;;;;17.20;12.95;;;;;;;;;;5091068;28;20173;-49
2023/06/29 12:05:04;;;;;;;20.38;12.63;;;26.10;99.90;;;;;;5090810;28;20255;-50
2023/06/29 12:07:40;;;;;;;18.63;12.75;;;26.00;99.90;;;;;;5091165;28;20173;-49
2023/06/29 12:10:11;;;;;;;19.60;12.98;;;26.00;99.90;;;;;;5090968;28;20710;-51
2023/06/29 12:12:45;;;;;;;17.60;12.48;;;26.10;99.90;;;;;;5091239;28;20244;-49
2023/06/29 12:15:15;;;;;;;17.17;12.68;;;;;;;;;;5091331;28;20179;-48
2023/06/29 12:17:41;;;;;;;16.17;12.02;;;25.60;99.90;;;;;;5091097;28;20176;-48
2023/06/29 12:20:14;;;;;;;19.63;12.48;;;26.20;99.90;;;;;;5090965;28;20204;-48
2023/06/29 12:22:41;;;;;;;16.55;12.63;;;25.80;99.90;;;;;;5090978;28;20636;-50
2023/06/29 12:25:10;;;;;;;25.10;13.35;;;25.70;99.90;;;;;;5091128;28;20186;-50
2023/06/29 12:27:35;;;;;;;21.85;12.73;;;25.80;99.90;;;;;;5091400;28;20165;-50
2023/06/29 12:30:01;;;;;;;20.73;12.85;;;25.90;99.90;;;;;;5091127;28;20650;-49
2023/06/29 12:32:27;;;;;;;21.40;13.25;;;25.50;99.90;;;;;;5090992;28;20279;-50
2023/06/29 12:34:52;;;;;;;24.60;13.07;;;25.80;99.90;;;;;;5091100;28;20161;-49
2023/06/29 12:37:18;;;;;;;20.13;13.43;;;25.60;99.90;;;;;;5073327;28;20690;-50
2023/06/29 12:39:43;;;;;;;21.45;13.13;;;25.30;99.90;;;;;;5090929;28;20199;-51
2023/06/29 12:42:09;;;;;;;19.63;13.88;;;25.50;99.90;;;;;;5092346;28;20173;-50
2023/06/29 12:44:35;;;;;;;17.65;13.32;;;25.00;99.90;;;;;;5094923;28;20625;-50